sensor_id;sensor_type;location;lat;lon;timestamp;temperature;humidity
26621;DHT22;14253;44.840;10.444;2024-01-25T00:00:28;1.90;99.90
26621;DHT22;14253;44.840;10.444;2024-01-25T00:02:54;1.90;99.90
26621;DHT22;14253;44.840;10.444;2024-01-25T00:05:20;1.90;99.90
26621;DHT22;14253;44.840;10.444;2024-01-25T00:07:49;1.90;99.90
26621;DHT22;14253;44.840;10.444;2024-01-25T00:10:16;1.90;99.90
26621;DHT22;14253;44.840;10.444;2024-01-25T00:12:43;1.90;99.90
26621;DHT22;14253;44.840;10.444;2024-01-25T00:15:12;1.90;99.90
26621;DHT22;14253;44.840;10.444;2024-01-25T00:17:38;1.80;99.90
26621;DHT22;14253;44.840;10.444;2024-01-25T00:20:05;1.90;99.90
26621;DHT22;14253;44.840;10.444;2024-01-25T00:22:31;1.80;99.90
26621;DHT22;14253;44.840;10.444;2024-01-25T00:25:00;1.80;99.90
26621;DHT22;14253;44.840;10.444;2024-01-25T00:27:26;1.80;99.90
26621;DHT22;14253;44.840;10.444;2024-01-25T00:29:52;1.80;99.90
26621;DHT22;14253;44.840;10.444;2024-01-25T00:32:18;1.80;99.90
26621;DHT22;14253;44.840;10.444;2024-01-25T00:34:44;1.90;99.90
26621;DHT22;14253;44.840;10.444;2024-01-25T00:37:11;1.80;99.90
26621;DHT22;14253;44.840;10.444;2024-01-25T00:39:37;1.80;99.90
26621;DHT22;14253;44.840;10.444;2024-01-25T00:42:04;1.90;99.90
26621;DHT22;14253;44.840;10.444;2024-01-25T00:44:32;1.80;99.90
26621;DHT22;14253;44.840;10.444;2024-01-25T00:46:58;1.80;99.90
26621;DHT22;14253;44.840;10.444;2024-01-25T00:49:25;1.80;99.90
26621;DHT22;14253;44.840;10.444;2024-01-25T00:51:58;1.80;99.90
26621;DHT22;14253;44.840;10.444;2024-01-25T00:54:24;1.70;99.90
26621;DHT22;14253;44.840;10.444;2024-01-25T00:56:50;1.80;99.90
26621;DHT22;14253;44.840;10.444;2024-01-25T00:59:19;1.70;99.90
26621;DHT22;14253;44.840;10.444;2024-01-25T01:01:47;1.80;99.90
26621;DHT22;14253;44.840;10.444;2024-01-25T01:04:14;1.80;99.90
26621;DHT22;14253;44.840;10.444;2024-01-25T01:06:41;1.80;99.90
26621;DHT22;14253;44.840;10.444;2024-01-25T01:09:07;1.80;99.90
26621;DHT22;14253;44.840;10.444;2024-01-25T01:11:33;1.70;99.90
26621;DHT22;14253;44.840;10.444;2024-01-25T01:13:59;1.70;99.90
26621;DHT22;14253;44.840;10.444;2024-01-25T01:16:25;1.80;99.90
26621;DHT22;14253;44.840;10.444;2024-01-25T01:18:51;1.80;99.90
26621;DHT22;14253;44.840;10.444;2024-01-25T01:21:17;1.80;99.90
26621;DHT22;14253;44.840;10.444;2024-01-25T01:23:43;1.70;99.90
26621;DHT22;14253;44.840;10.444;2024-01-25T01:26:09;1.70;99.90
26621;DHT22;14253;44.840;10.444;2024-01-25T01:28:36;1.70;99.90
26621;DHT22;14253;44.840;10.444;2024-01-25T01:31:02;1.60;99.90
26621;DHT22;14253;44.840;10.444;2024-01-25T01:33:28;1.60;99.90
26621;DHT22;14253;44.840;10.444;2024-01-25T01:35:54;1.60;99.90
26621;DHT22;14253;44.840;10.444;2024-01-25T01:38:20;1.60;99.90
26621;DHT22;14253;44.840;10.444;2024-01-25T01:40:46;1.60;99.90
26621;DHT22;14253;44.840;10.444;2024-01-25T01:43:21;1.50;99.90
26621;DHT22;14253;44.840;10.444;2024-01-25T01:45:49;1.50;99.90
26621;DHT22;14253;44.840;10.444;2024-01-25T01:48:16;1.50;99.90
26621;DHT22;14253;44.840;10.444;2024-01-25T01:50:45;1.40;99.90
26621;DHT22;14253;44.840;10.444;2024-01-25T01:53:13;1.30;99.90
26621;DHT22;14253;44.840;10.444;2024-01-25T01:55:39;1.30;99.90
26621;DHT22;14253;44.840;10.444;2024-01-25T01:58:08;1.20;99.90
26621;DHT22;14253;44.840;10.444;2024-01-25T02:00:37;1.20;99.90
26621;DHT22;14253;44.840;10.444;2024-01-25T02:03:04;1.10;99.90
26621;DHT22;14253;44.840;10.444;2024-01-25T02:05:30;1.20;99.90
26621;DHT22;14253;44.840;10.444;2024-01-25T02:07:56;1.10;99.90
26621;DHT22;14253;44.840;10.444;2024-01-25T02:10:22;1.10;99.90
26621;DHT22;14253;44.840;10.444;2024-01-25T02:12:48;1.20;99.90
26621;DHT22;14253;44.840;10.444;2024-01-25T02:15:14;1.20;99.90
26621;DHT22;14253;44.840;10.444;2024-01-25T02:17:40;1.20;99.90
26621;DHT22;14253;44.840;10.444;2024-01-25T02:20:07;1.20;99.90
26621;DHT22;14253;44.840;10.444;2024-01-25T02:22:33;1.10;99.90
26621;DHT22;14253;44.840;10.444;2024-01-25T02:24:59;1.10;99.90
26621;DHT22;14253;44.840;10.444;2024-01-25T02:27:25;1.10;99.90
26621;DHT22;14253;44.840;10.444;2024-01-25T02:29:51;1.10;99.90
26621;DHT22;14253;44.840;10.444;2024-01-25T02:32:17;1.10;99.90
26621;DHT22;14253;44.840;10.444;2024-01-25T02:34:43;1.10;99.90
26621;DHT22;14253;44.840;10.444;2024-01-25T02:37:09;1.20;99.90
26621;DHT22;14253;44.840;10.444;2024-01-25T02:39:37;1.20;99.90
26621;DHT22;14253;44.840;10.444;2024-01-25T02:42:03;1.20;99.90
26621;DHT22;14253;44.840;10.444;2024-01-25T02:44:29;1.20;99.90
26621;DHT22;14253;44.840;10.444;2024-01-25T02:46:55;1.10;99.90
26621;DHT22;14253;44.840;10.444;2024-01-25T02:49:21;1.10;99.90
26621;DHT22;14253;44.840;10.444;2024-01-25T02:51:49;1.10;99.90
26621;DHT22;14253;44.840;10.444;2024-01-25T02:54:15;1.00;99.90
26621;DHT22;14253;44.840;10.444;2024-01-25T02:56:41;1.00;99.90
26621;DHT22;14253;44.840;10.444;2024-01-25T02:59:07;1.00;99.90
26621;DHT22;14253;44.840;10.444;2024-01-25T03:01:43;1.10;99.90
26621;DHT22;14253;44.840;10.444;2024-01-25T03:04:09;1.00;99.90
26621;DHT22;14253;44.840;10.444;2024-01-25T03:06:35;1.00;99.90
26621;DHT22;14253;44.840;10.444;2024-01-25T03:09:01;1.00;99.90
26621;DHT22;14253;44.840;10.444;2024-01-25T03:11:30;1.00;99.90
26621;DHT22;14253;44.840;10.444;2024-01-25T03:13:56;1.00;99.90
26621;DHT22;14253;44.840;10.444;2024-01-25T03:16:23;0.90;99.90
26621;DHT22;14253;44.840;10.444;2024-01-25T03:18:49;0.90;99.90
26621;DHT22;14253;44.840;10.444;2024-01-25T03:21:15;0.90;99.90
26621;DHT22;14253;44.840;10.444;2024-01-25T03:23:41;0.80;99.90
26621;DHT22;14253;44.840;10.444;2024-01-25T03:26:07;0.80;99.90
26621;DHT22;14253;44.840;10.444;2024-01-25T03:28:36;0.80;99.90
26621;DHT22;14253;44.840;10.444;2024-01-25T03:31:03;0.80;99.90
26621;DHT22;14253;44.840;10.444;2024-01-25T03:33:29;0.80;99.90
26621;DHT22;14253;44.840;10.444;2024-01-25T03:35:55;0.70;99.90
26621;DHT22;14253;44.840;10.444;2024-01-25T03:38:21;0.80;99.90
26621;DHT22;14253;44.840;10.444;2024-01-25T03:40:47;0.70;99.90
26621;DHT22;14253;44.840;10.444;2024-01-25T03:43:13;0.70;99.90
26621;DHT22;14253;44.840;10.444;2024-01-25T03:45:39;0.70;99.90
26621;DHT22;14253;44.840;10.444;2024-01-25T03:48:05;0.70;99.90
26621;DHT22;14253;44.840;10.444;2024-01-25T03:50:31;0.60;99.90
26621;DHT22;14253;44.840;10.444;2024-01-25T03:52:57;0.60;99.90
26621;DHT22;14253;44.840;10.444;2024-01-25T03:55:23;0.60;99.90
26621;DHT22;14253;44.840;10.444;2024-01-25T03:57:49;0.50;99.90
26621;DHT22;14253;44.840;10.444;2024-01-25T04:00:15;0.50;99.90
26621;DHT22;14253;44.840;10.444;2024-01-25T04:02:41;0.60;99.90
26621;DHT22;14253;44.840;10.444;2024-01-25T04:05:07;0.50;99.90
26621;DHT22;14253;44.840;10.444;2024-01-25T04:07:33;0.60;99.90
26621;DHT22;14253;44.840;10.444;2024-01-25T04:09:59;0.60;99.90
26621;DHT22;14253;44.840;10.444;2024-01-25T04:12:25;0.60;99.90
26621;DHT22;14253;44.840;10.444;2024-01-25T04:14:51;0.60;99.90
26621;DHT22;14253;44.840;10.444;2024-01-25T04:17:17;0.60;99.90
26621;DHT22;14253;44.840;10.444;2024-01-25T04:19:43;0.50;99.90
26621;DHT22;14253;44.840;10.444;2024-01-25T04:22:09;0.50;99.90
26621;DHT22;14253;44.840;10.444;2024-01-25T04:24:35;0.50;99.90
26621;DHT22;14253;44.840;10.444;2024-01-25T04:27:01;0.50;99.90
26621;DHT22;14253;44.840;10.444;2024-01-25T04:29:27;0.50;99.90
26621;DHT22;14253;44.840;10.444;2024-01-25T04:31:52;0.50;99.90
26621;DHT22;14253;44.840;10.444;2024-01-25T04:34:18;0.60;99.90
26621;DHT22;14253;44.840;10.444;2024-01-25T04:36:44;0.60;99.90
26621;DHT22;14253;44.840;10.444;2024-01-25T04:39:10;0.60;99.90
26621;DHT22;14253;44.840;10.444;2024-01-25T04:41:36;0.60;99.90
26621;DHT22;14253;44.840;10.444;2024-01-25T04:44:02;0.60;99.90
26621;DHT22;14253;44.840;10.444;2024-01-25T04:46:29;0.60;99.90
26621;DHT22;14253;44.840;10.444;2024-01-25T04:48:55;0.70;99.90
26621;DHT22;14253;44.840;10.444;2024-01-25T04:51:21;0.70;99.90
26621;DHT22;14253;44.840;10.444;2024-01-25T04:53:47;0.70;99.90
26621;DHT22;14253;44.840;10.444;2024-01-25T04:56:13;0.60;99.90
26621;DHT22;14253;44.840;10.444;2024-01-25T04:58:39;0.60;99.90
26621;DHT22;14253;44.840;10.444;2024-01-25T05:01:05;0.50;99.90
26621;DHT22;14253;44.840;10.444;2024-01-25T05:03:33;0.50;99.90
26621;DHT22;14253;44.840;10.444;2024-01-25T05:05:59;0.50;99.90
26621;DHT22;14253;44.840;10.444;2024-01-25T05:08:26;0.50;99.90
26621;DHT22;14253;44.840;10.444;2024-01-25T05:10:52;0.50;99.90
26621;DHT22;14253;44.840;10.444;2024-01-25T05:13:18;0.50;99.90
26621;DHT22;14253;44.840;10.444;2024-01-25T05:15:44;0.50;99.90
26621;DHT22;14253;44.840;10.444;2024-01-25T05:18:10;0.50;99.90
26621;DHT22;14253;44.840;10.444;2024-01-25T05:20:36;0.40;99.90
26621;DHT22;14253;44.840;10.444;2024-01-25T05:23:04;0.40;99.90
26621;DHT22;14253;44.840;10.444;2024-01-25T05:25:31;0.40;99.90
26621;DHT22;14253;44.840;10.444;2024-01-25T05:27:57;0.40;99.90
26621;DHT22;14253;44.840;10.444;2024-01-25T05:30:24;0.40;99.90
26621;DHT22;14253;44.840;10.444;2024-01-25T05:32:51;0.30;99.90
26621;DHT22;14253;44.840;10.444;2024-01-25T05:35:19;0.30;99.90
26621;DHT22;14253;44.840;10.444;2024-01-25T05:37:45;0.20;99.90
26621;DHT22;14253;44.840;10.444;2024-01-25T05:40:11;0.20;99.90
26621;DHT22;14253;44.840;10.444;2024-01-25T05:42:37;0.00;99.90
26621;DHT22;14253;44.840;10.444;2024-01-25T05:45:04;0.00;99.90
26621;DHT22;14253;44.840;10.444;2024-01-25T05:47:30;-0.10;99.90
26621;DHT22;14253;44.840;10.444;2024-01-25T05:49:57;-0.20;99.90
26621;DHT22;14253;44.840;10.444;2024-01-25T05:52:23;-0.10;99.90
26621;DHT22;14253;44.840;10.444;2024-01-25T05:54:52;-0.10;99.90
26621;DHT22;14253;44.840;10.444;2024-01-25T05:57:18;-0.10;99.90
26621;DHT22;14253;44.840;10.444;2024-01-25T05:59:45;0.00;99.90
26621;DHT22;14253;44.840;10.444;2024-01-25T06:02:11;0.00;99.90
26621;DHT22;14253;44.840;10.444;2024-01-25T06:04:37;0.00;99.90
26621;DHT22;14253;44.840;10.444;2024-01-25T06:07:03;-0.10;99.90
26621;DHT22;14253;44.840;10.444;2024-01-25T06:09:29;-0.10;99.90
26621;DHT22;14253;44.840;10.444;2024-01-25T06:11:57;-0.20;99.90
26621;DHT22;14253;44.840;10.444;2024-01-25T06:14:26;-0.20;99.90
26621;DHT22;14253;44.840;10.444;2024-01-25T06:17:01;-0.20;99.90
26621;DHT22;14253;44.840;10.444;2024-01-25T06:19:44;-0.20;99.90
26621;DHT22;14253;44.840;10.444;2024-01-25T06:22:10;-0.10;99.90
26621;DHT22;14253;44.840;10.444;2024-01-25T06:24:38;-0.10;99.90
26621;DHT22;14253;44.840;10.444;2024-01-25T06:27:07;-0.10;99.90
26621;DHT22;14253;44.840;10.444;2024-01-25T06:29:36;-0.10;99.90
26621;DHT22;14253;44.840;10.444;2024-01-25T06:32:10;-0.20;99.90
26621;DHT22;14253;44.840;10.444;2024-01-25T06:34:47;-0.10;99.90
26621;DHT22;14253;44.840;10.444;2024-01-25T06:37:12;-0.30;99.90
26621;DHT22;14253;44.840;10.444;2024-01-25T06:39:40;-0.40;99.90
26621;DHT22;14253;44.840;10.444;2024-01-25T06:42:06;-0.50;99.90
26621;DHT22;14253;44.840;10.444;2024-01-25T06:44:32;-0.60;99.90
26621;DHT22;14253;44.840;10.444;2024-01-25T06:46:59;-0.70;99.90
26621;DHT22;14253;44.840;10.444;2024-01-25T06:49:34;-0.70;99.90
26621;DHT22;14253;44.840;10.444;2024-01-25T06:52:00;-0.70;99.90
26621;DHT22;14253;44.840;10.444;2024-01-25T06:54:25;-0.60;99.90
26621;DHT22;14253;44.840;10.444;2024-01-25T06:56:51;-0.50;99.90
26621;DHT22;14253;44.840;10.444;2024-01-25T06:59:17;-0.50;99.90
26621;DHT22;14253;44.840;10.444;2024-01-25T07:01:44;-0.40;99.90
26621;DHT22;14253;44.840;10.444;2024-01-25T07:04:09;-0.40;99.90
26621;DHT22;14253;44.840;10.444;2024-01-25T07:06:35;-0.30;99.90
26621;DHT22;14253;44.840;10.444;2024-01-25T07:09:06;-0.30;99.90
26621;DHT22;14253;44.840;10.444;2024-01-25T07:11:35;-0.30;99.90
26621;DHT22;14253;44.840;10.444;2024-01-25T07:14:01;-0.20;99.90
26621;DHT22;14253;44.840;10.444;2024-01-25T07:16:27;-0.10;99.90
26621;DHT22;14253;44.840;10.444;2024-01-25T07:18:53;-0.10;99.90
26621;DHT22;14253;44.840;10.444;2024-01-25T07:21:18;-0.20;99.90
26621;DHT22;14253;44.840;10.444;2024-01-25T07:23:44;-0.20;99.90
26621;DHT22;14253;44.840;10.444;2024-01-25T07:26:18;-0.20;99.90
26621;DHT22;14253;44.840;10.444;2024-01-25T07:28:45;-0.30;99.90
26621;DHT22;14253;44.840;10.444;2024-01-25T07:31:11;-0.20;99.90
26621;DHT22;14253;44.840;10.444;2024-01-25T07:33:37;-0.30;99.90
26621;DHT22;14253;44.840;10.444;2024-01-25T07:36:04;-0.30;99.90
26621;DHT22;14253;44.840;10.444;2024-01-25T07:38:30;-0.20;99.90
26621;DHT22;14253;44.840;10.444;2024-01-25T07:40:56;-0.10;99.90
26621;DHT22;14253;44.840;10.444;2024-01-25T07:43:21;0.10;99.90
26621;DHT22;14253;44.840;10.444;2024-01-25T07:45:47;0.20;99.90
26621;DHT22;14253;44.840;10.444;2024-01-25T07:48:13;0.30;99.90
26621;DHT22;14253;44.840;10.444;2024-01-25T07:50:39;0.50;99.90
26621;DHT22;14253;44.840;10.444;2024-01-25T07:53:05;0.50;99.90
26621;DHT22;14253;44.840;10.444;2024-01-25T07:55:31;0.60;99.90
26621;DHT22;14253;44.840;10.444;2024-01-25T07:57:57;0.60;99.90
26621;DHT22;14253;44.840;10.444;2024-01-25T08:00:23;0.70;99.90
26621;DHT22;14253;44.840;10.444;2024-01-25T08:02:49;0.80;99.90
26621;DHT22;14253;44.840;10.444;2024-01-25T08:05:15;0.80;99.90
26621;DHT22;14253;44.840;10.444;2024-01-25T08:07:41;0.90;99.90
26621;DHT22;14253;44.840;10.444;2024-01-25T08:10:07;1.00;99.90
26621;DHT22;14253;44.840;10.444;2024-01-25T08:12:34;1.10;99.90
26621;DHT22;14253;44.840;10.444;2024-01-25T08:15:00;1.10;99.90
26621;DHT22;14253;44.840;10.444;2024-01-25T08:17:26;1.20;99.90
26621;DHT22;14253;44.840;10.444;2024-01-25T08:19:52;1.30;99.90
26621;DHT22;14253;44.840;10.444;2024-01-25T08:22:19;1.50;99.90
26621;DHT22;14253;44.840;10.444;2024-01-25T08:24:45;1.60;99.90
26621;DHT22;14253;44.840;10.444;2024-01-25T08:27:11;1.80;99.90
26621;DHT22;14253;44.840;10.444;2024-01-25T08:29:37;1.80;99.90
26621;DHT22;14253;44.840;10.444;2024-01-25T08:32:03;1.80;99.90
26621;DHT22;14253;44.840;10.444;2024-01-25T08:34:29;1.90;99.90
26621;DHT22;14253;44.840;10.444;2024-01-25T08:36:55;2.00;99.90
26621;DHT22;14253;44.840;10.444;2024-01-25T08:39:21;2.00;99.90
26621;DHT22;14253;44.840;10.444;2024-01-25T08:41:47;2.20;99.90
26621;DHT22;14253;44.840;10.444;2024-01-25T08:44:14;2.20;99.90
26621;DHT22;14253;44.840;10.444;2024-01-25T08:46:40;2.10;99.90
26621;DHT22;14253;44.840;10.444;2024-01-25T08:49:08;2.20;99.90
26621;DHT22;14253;44.840;10.444;2024-01-25T08:51:36;2.20;99.90
26621;DHT22;14253;44.840;10.444;2024-01-25T08:54:01;2.20;99.90
26621;DHT22;14253;44.840;10.444;2024-01-25T08:56:29;2.40;99.90
26621;DHT22;14253;44.840;10.444;2024-01-25T08:58:55;2.40;99.90
26621;DHT22;14253;44.840;10.444;2024-01-25T09:01:21;2.50;99.90
26621;DHT22;14253;44.840;10.444;2024-01-25T09:03:47;2.50;99.90
26621;DHT22;14253;44.840;10.444;2024-01-25T09:06:13;2.50;99.90
26621;DHT22;14253;44.840;10.444;2024-01-25T09:08:40;2.60;99.90
26621;DHT22;14253;44.840;10.444;2024-01-25T09:11:06;2.70;99.90
26621;DHT22;14253;44.840;10.444;2024-01-25T09:13:32;2.90;99.90
26621;DHT22;14253;44.840;10.444;2024-01-25T09:15:58;3.00;99.90
26621;DHT22;14253;44.840;10.444;2024-01-25T09:18:24;3.00;99.90
26621;DHT22;14253;44.840;10.444;2024-01-25T09:20:50;3.10;99.90
26621;DHT22;14253;44.840;10.444;2024-01-25T09:23:17;3.20;99.90
26621;DHT22;14253;44.840;10.444;2024-01-25T09:25:46;3.30;99.90
26621;DHT22;14253;44.840;10.444;2024-01-25T09:28:12;3.40;99.90
26621;DHT22;14253;44.840;10.444;2024-01-25T09:30:41;3.40;99.90
26621;DHT22;14253;44.840;10.444;2024-01-25T09:33:07;3.50;99.90
26621;DHT22;14253;44.840;10.444;2024-01-25T09:35:33;3.60;99.90
26621;DHT22;14253;44.840;10.444;2024-01-25T09:37:59;3.60;99.90
26621;DHT22;14253;44.840;10.444;2024-01-25T09:40:25;3.70;99.90
26621;DHT22;14253;44.840;10.444;2024-01-25T09:42:52;3.90;99.90
26621;DHT22;14253;44.840;10.444;2024-01-25T09:45:18;4.00;99.90
26621;DHT22;14253;44.840;10.444;2024-01-25T09:47:45;4.20;99.90
26621;DHT22;14253;44.840;10.444;2024-01-25T09:50:11;4.30;99.90
26621;DHT22;14253;44.840;10.444;2024-01-25T09:52:43;4.30;99.90
26621;DHT22;14253;44.840;10.444;2024-01-25T09:55:12;4.30;99.90
26621;DHT22;14253;44.840;10.444;2024-01-25T09:57:45;4.40;99.90
26621;DHT22;14253;44.840;10.444;2024-01-25T10:00:16;4.50;99.90
26621;DHT22;14253;44.840;10.444;2024-01-25T10:02:42;4.60;99.90
26621;DHT22;14253;44.840;10.444;2024-01-25T10:05:08;4.70;99.90
26621;DHT22;14253;44.840;10.444;2024-01-25T10:07:47;4.70;99.90
26621;DHT22;14253;44.840;10.444;2024-01-25T10:10:13;4.70;99.90
26621;DHT22;14253;44.840;10.444;2024-01-25T10:12:41;4.80;99.90
26621;DHT22;14253;44.840;10.444;2024-01-25T10:15:07;4.80;99.90
26621;DHT22;14253;44.840;10.444;2024-01-25T10:17:34;4.90;99.90
26621;DHT22;14253;44.840;10.444;2024-01-25T10:19:59;4.90;99.90
26621;DHT22;14253;44.840;10.444;2024-01-25T10:22:25;5.00;99.90
26621;DHT22;14253;44.840;10.444;2024-01-25T10:24:52;5.10;99.90
26621;DHT22;14253;44.840;10.444;2024-01-25T10:27:21;5.20;99.90
26621;DHT22;14253;44.840;10.444;2024-01-25T10:29:49;5.40;99.90
26621;DHT22;14253;44.840;10.444;2024-01-25T10:32:16;5.50;99.90
26621;DHT22;14253;44.840;10.444;2024-01-25T10:34:45;5.70;99.90
26621;DHT22;14253;44.840;10.444;2024-01-25T10:37:13;6.00;99.90
26621;DHT22;14253;44.840;10.444;2024-01-25T10:39:40;6.10;99.90
26621;DHT22;14253;44.840;10.444;2024-01-25T10:42:07;6.30;99.90
26621;DHT22;14253;44.840;10.444;2024-01-25T10:44:33;6.40;99.90
26621;DHT22;14253;44.840;10.444;2024-01-25T10:46:59;6.50;99.90
26621;DHT22;14253;44.840;10.444;2024-01-25T10:49:26;6.70;99.90
26621;DHT22;14253;44.840;10.444;2024-01-25T10:51:52;6.80;99.90
26621;DHT22;14253;44.840;10.444;2024-01-25T10:54:19;6.80;99.90
26621;DHT22;14253;44.840;10.444;2024-01-25T10:56:48;6.90;99.90
26621;DHT22;14253;44.840;10.444;2024-01-25T10:59:15;6.90;99.90
26621;DHT22;14253;44.840;10.444;2024-01-25T11:01:45;7.00;99.90
26621;DHT22;14253;44.840;10.444;2024-01-25T11:04:15;7.20;99.90
26621;DHT22;14253;44.840;10.444;2024-01-25T11:06:46;7.30;99.90
26621;DHT22;14253;44.840;10.444;2024-01-25T11:09:19;7.50;99.90
26621;DHT22;14253;44.840;10.444;2024-01-25T11:11:49;7.60;99.90
26621;DHT22;14253;44.840;10.444;2024-01-25T11:14:15;7.80;99.90
26621;DHT22;14253;44.840;10.444;2024-01-25T11:16:43;7.80;99.90
26621;DHT22;14253;44.840;10.444;2024-01-25T11:19:20;8.00;99.90
26621;DHT22;14253;44.840;10.444;2024-01-25T11:21:48;8.10;99.90
26621;DHT22;14253;44.840;10.444;2024-01-25T11:24:16;8.20;99.90
26621;DHT22;14253;44.840;10.444;2024-01-25T11:26:43;8.40;99.90
26621;DHT22;14253;44.840;10.444;2024-01-25T11:29:12;8.50;99.90
26621;DHT22;14253;44.840;10.444;2024-01-25T11:31:40;8.60;99.90
26621;DHT22;14253;44.840;10.444;2024-01-25T11:34:06;8.70;99.90
26621;DHT22;14253;44.840;10.444;2024-01-25T11:36:32;8.80;99.90
26621;DHT22;14253;44.840;10.444;2024-01-25T11:38:58;9.00;99.90
26621;DHT22;14253;44.840;10.444;2024-01-25T11:41:24;9.00;99.90
26621;DHT22;14253;44.840;10.444;2024-01-25T11:43:50;9.20;99.90
26621;DHT22;14253;44.840;10.444;2024-01-25T11:46:17;9.30;99.90
26621;DHT22;14253;44.840;10.444;2024-01-25T11:48:43;9.40;99.90
26621;DHT22;14253;44.840;10.444;2024-01-25T11:51:10;9.60;99.90
26621;DHT22;14253;44.840;10.444;2024-01-25T11:53:42;9.70;99.90
26621;DHT22;14253;44.840;10.444;2024-01-25T11:56:11;9.80;99.90
26621;DHT22;14253;44.840;10.444;2024-01-25T11:58:39;9.90;99.90
26621;DHT22;14253;44.840;10.444;2024-01-25T12:01:06;9.90;99.90
26621;DHT22;14253;44.840;10.444;2024-01-25T12:03:36;10.00;99.90
26621;DHT22;14253;44.840;10.444;2024-01-25T12:06:06;10.10;99.90
26621;DHT22;14253;44.840;10.444;2024-01-25T12:08:35;10.20;99.90
26621;DHT22;14253;44.840;10.444;2024-01-25T12:11:05;10.30;99.90
26621;DHT22;14253;44.840;10.444;2024-01-25T12:13:33;10.30;99.90
26621;DHT22;14253;44.840;10.444;2024-01-25T12:15:59;10.50;99.90
26621;DHT22;14253;44.840;10.444;2024-01-25T12:18:27;10.80;99.90
26621;DHT22;14253;44.840;10.444;2024-01-25T12:20:53;10.90;99.90
26621;DHT22;14253;44.840;10.444;2024-01-25T12:23:20;11.10;99.90
26621;DHT22;14253;44.840;10.444;2024-01-25T12:25:46;11.30;99.90
26621;DHT22;14253;44.840;10.444;2024-01-25T12:28:12;11.40;99.90
26621;DHT22;14253;44.840;10.444;2024-01-25T12:30:37;11.50;99.90
26621;DHT22;14253;44.840;10.444;2024-01-25T12:33:03;11.60;99.90
26621;DHT22;14253;44.840;10.444;2024-01-25T12:35:29;11.50;99.90
26621;DHT22;14253;44.840;10.444;2024-01-25T12:37:55;11.50;99.90
26621;DHT22;14253;44.840;10.444;2024-01-25T12:40:21;11.40;99.90
26621;DHT22;14253;44.840;10.444;2024-01-25T12:42:47;11.40;99.90
26621;DHT22;14253;44.840;10.444;2024-01-25T12:45:14;11.60;99.90
26621;DHT22;14253;44.840;10.444;2024-01-25T12:47:39;11.60;99.90
26621;DHT22;14253;44.840;10.444;2024-01-25T12:50:06;11.70;99.90
26621;DHT22;14253;44.840;10.444;2024-01-25T12:52:32;11.60;99.90
26621;DHT22;14253;44.840;10.444;2024-01-25T12:54:58;11.70;99.90
26621;DHT22;14253;44.840;10.444;2024-01-25T12:57:24;11.70;99.90
26621;DHT22;14253;44.840;10.444;2024-01-25T12:59:50;11.50;99.90
26621;DHT22;14253;44.840;10.444;2024-01-25T13:02:16;11.40;99.90
26621;DHT22;14253;44.840;10.444;2024-01-25T13:04:42;11.40;99.90
26621;DHT22;14253;44.840;10.444;2024-01-25T13:07:08;11.20;99.90
26621;DHT22;14253;44.840;10.444;2024-01-25T13:09:34;11.20;99.90
26621;DHT22;14253;44.840;10.444;2024-01-25T13:12:02;11.00;99.90
26621;DHT22;14253;44.840;10.444;2024-01-25T13:14:29;11.00;99.90
26621;DHT22;14253;44.840;10.444;2024-01-25T13:16:55;10.90;99.90
26621;DHT22;14253;44.840;10.444;2024-01-25T13:19:21;10.90;99.90
26621;DHT22;14253;44.840;10.444;2024-01-25T13:21:48;10.80;99.90
26621;DHT22;14253;44.840;10.444;2024-01-25T13:24:14;10.80;99.90
26621;DHT22;14253;44.840;10.444;2024-01-25T13:26:40;10.80;99.90
26621;DHT22;14253;44.840;10.444;2024-01-25T13:29:06;10.80;99.90
26621;DHT22;14253;44.840;10.444;2024-01-25T13:31:32;10.70;99.90
26621;DHT22;14253;44.840;10.444;2024-01-25T13:33:58;10.70;99.90
26621;DHT22;14253;44.840;10.444;2024-01-25T13:36:24;10.70;99.90
26621;DHT22;14253;44.840;10.444;2024-01-25T13:38:50;10.70;99.90
26621;DHT22;14253;44.840;10.444;2024-01-25T13:41:16;10.70;99.90
26621;DHT22;14253;44.840;10.444;2024-01-25T13:43:42;10.70;99.90
26621;DHT22;14253;44.840;10.444;2024-01-25T13:46:08;10.90;99.90
26621;DHT22;14253;44.840;10.444;2024-01-25T13:48:33;10.90;99.90
26621;DHT22;14253;44.840;10.444;2024-01-25T13:50:59;10.90;99.90
26621;DHT22;14253;44.840;10.444;2024-01-25T13:53:25;10.90;99.90
26621;DHT22;14253;44.840;10.444;2024-01-25T13:55:51;10.90;99.90
26621;DHT22;14253;44.840;10.444;2024-01-25T13:58:17;11.00;99.90
26621;DHT22;14253;44.840;10.444;2024-01-25T14:00:43;11.00;99.90
26621;DHT22;14253;44.840;10.444;2024-01-25T14:03:09;10.90;99.90
26621;DHT22;14253;44.840;10.444;2024-01-25T14:05:35;10.90;99.90
26621;DHT22;14253;44.840;10.444;2024-01-25T14:08:01;10.90;99.90
26621;DHT22;14253;44.840;10.444;2024-01-25T14:10:27;10.80;99.90
26621;DHT22;14253;44.840;10.444;2024-01-25T14:12:54;10.80;99.90
26621;DHT22;14253;44.840;10.444;2024-01-25T14:15:20;10.70;99.90
26621;DHT22;14253;44.840;10.444;2024-01-25T14:17:46;10.70;99.90
26621;DHT22;14253;44.840;10.444;2024-01-25T14:20:12;10.60;99.90
26621;DHT22;14253;44.840;10.444;2024-01-25T14:22:38;10.60;99.90
26621;DHT22;14253;44.840;10.444;2024-01-25T14:25:04;10.60;99.90
26621;DHT22;14253;44.840;10.444;2024-01-25T14:27:31;10.50;99.90
26621;DHT22;14253;44.840;10.444;2024-01-25T14:29:59;10.40;99.90
26621;DHT22;14253;44.840;10.444;2024-01-25T14:32:26;10.40;99.90
26621;DHT22;14253;44.840;10.444;2024-01-25T14:34:52;10.20;99.90
26621;DHT22;14253;44.840;10.444;2024-01-25T14:37:18;10.20;99.90
26621;DHT22;14253;44.840;10.444;2024-01-25T14:39:44;10.20;99.90
26621;DHT22;14253;44.840;10.444;2024-01-25T14:42:10;10.10;99.90
26621;DHT22;14253;44.840;10.444;2024-01-25T14:44:42;10.00;99.90
26621;DHT22;14253;44.840;10.444;2024-01-25T14:47:08;9.90;99.90
26621;DHT22;14253;44.840;10.444;2024-01-25T14:49:35;9.80;99.90
26621;DHT22;14253;44.840;10.444;2024-01-25T14:52:01;9.70;99.90
26621;DHT22;14253;44.840;10.444;2024-01-25T14:54:27;9.70;99.90
26621;DHT22;14253;44.840;10.444;2024-01-25T14:56:53;9.70;99.90
26621;DHT22;14253;44.840;10.444;2024-01-25T14:59:19;9.60;99.90
26621;DHT22;14253;44.840;10.444;2024-01-25T15:01:48;9.60;99.90
26621;DHT22;14253;44.840;10.444;2024-01-25T15:04:14;9.60;99.90
26621;DHT22;14253;44.840;10.444;2024-01-25T15:06:42;9.50;99.90
26621;DHT22;14253;44.840;10.444;2024-01-25T15:09:09;9.40;99.90
26621;DHT22;14253;44.840;10.444;2024-01-25T15:11:36;9.30;99.90
26621;DHT22;14253;44.840;10.444;2024-01-25T15:14:01;9.20;99.90
26621;DHT22;14253;44.840;10.444;2024-01-25T15:16:27;9.10;99.90
26621;DHT22;14253;44.840;10.444;2024-01-25T15:18:57;9.00;99.90
26621;DHT22;14253;44.840;10.444;2024-01-25T15:21:23;8.90;99.90
26621;DHT22;14253;44.840;10.444;2024-01-25T15:23:50;8.90;99.90